Time,TemperatureF,DewpointF,PressureIn,WindDirection,WindDirectionDegrees,WindSpeedMPH,WindSpeedGustMPH,Humidity,HourlyPrecipIn,Conditions,Clouds,dailyrainin,SoftwareType,DateUTC
2013-01-26 00:03:00,33.8,32.0,29.91,North,0,0.0,0.0,93,0.01,,,0.00,WUHU216HW,2013-01-26 08:03:00,
2013-01-26 00:08:00,33.8,32.0,29.91,North,0,0.0,0.0,93,0.01,,,0.00,WUHU216HW,2013-01-26 08:08:00,
2013-01-26 00:28:00,33.8,32.0,29.91,NNE,23,0.0,0.0,93,0.00,,,0.00,WUHU216HW,2013-01-26 08:28:00,
2013-01-26 00:33:00,33.8,32.0,29.91,NNE,23,0.0,0.0,93,0.00,,,0.00,WUHU216HW,2013-01-26 08:33:00,
2013-01-26 00:58:00,33.7,32.0,29.88,SSW,203,0.0,0.0,94,0.00,,,0.00,WUHU216HW,2013-01-26 08:58:00,
2013-01-26 01:03:00,33.7,32.0,29.88,SSW,203,0.0,0.0,94,0.00,,,0.00,WUHU216HW,2013-01-26 09:03:00,
2013-01-26 01:08:00,33.7,32.0,29.88,SSW,203,0.0,0.0,94,0.00,,,0.00,WUHU216HW,2013-01-26 09:08:00,
2013-01-26 01:28:00,33.7,32.0,29.89,WNW,293,0.0,0.0,94,0.00,,,0.00,WUHU216HW,2013-01-26 09:28:00,
2013-01-26 01:33:00,33.7,32.0,29.89,WNW,293,0.0,0.0,94,0.00,,,0.00,WUHU216HW,2013-01-26 09:33:00,
2013-01-26 01:58:00,33.8,32.2,29.91,SW,225,0.0,0.0,94,0.00,,,0.00,WUHU216HW,2013-01-26 09:58:00,
2013-01-26 02:03:00,33.8,32.2,29.91,SW,225,0.0,0.0,94,0.00,,,0.00,WUHU216HW,2013-01-26 10:03:00,
2013-01-26 02:08:00,33.8,32.2,29.91,SW,225,0.0,0.0,94,0.00,,,0.00,WUHU216HW,2013-01-26 10:08:00,
2013-01-26 02:28:00,33.7,31.8,29.90,NE,45,1.1,1.1,93,0.00,,,0.00,WUHU216HW,2013-01-26 10:28:00,
2013-01-26 02:33:00,33.7,31.8,29.90,NE,45,1.1,1.1,93,0.00,,,0.00,WUHU216HW,2013-01-26 10:33:00,
2013-01-26 02:58:00,33.8,32.2,29.88,WSW,248,0.7,0.7,94,0.01,,,0.00,WUHU216HW,2013-01-26 10:58:00,
2013-01-26 03:03:00,33.8,32.2,29.88,WSW,248,0.7,0.7,94,0.01,,,0.00,WUHU216HW,2013-01-26 11:03:00,
2013-01-26 03:28:00,34.2,32.6,29.87,ENE,68,0.0,0.0,94,0.01,,,0.02,WUHU216HW,2013-01-26 11:28:00,
2013-01-26 03:33:00,34.2,32.6,29.87,ENE,68,0.0,0.0,94,0.01,,,0.02,WUHU216HW,2013-01-26 11:33:00,
2013-01-26 03:58:00,34.4,32.8,29.89,SSW,203,3.1,3.1,94,0.00,,,0.02,WUHU216HW,2013-01-26 11:58:00,
2013-01-26 04:03:00,34.4,32.8,29.89,SSW,203,3.1,3.1,94,0.00,,,0.02,WUHU216HW,2013-01-26 12:03:00,
2013-01-26 04:28:00,34.9,33.3,29.89,SSW,203,1.1,1.1,94,0.00,,,0.02,WUHU216HW,2013-01-26 12:28:00,
2013-01-26 04:33:00,34.9,33.3,29.89,SSW,203,1.1,1.1,94,0.00,,,0.02,WUHU216HW,2013-01-26 12:33:00,
2013-01-26 04:58:00,34.7,33.1,29.90,SSW,203,0.0,0.0,94,0.01,,,0.02,WUHU216HW,2013-01-26 12:58:00,
2013-01-26 05:03:00,34.7,33.1,29.90,SSW,203,0.0,0.0,94,0.01,,,0.02,WUHU216HW,2013-01-26 13:03:00,
2013-01-26 05:28:00,34.6,32.9,29.90,NE,45,0.0,0.0,94,0.01,,,0.03,WUHU216HW,2013-01-26 13:28:00,
2013-01-26 05:33:00,34.6,32.9,29.90,NE,45,0.0,0.0,94,0.01,,,0.03,WUHU216HW,2013-01-26 13:33:00,
2013-01-26 05:58:00,34.4,32.8,29.90,NNE,23,0.0,0.0,94,0.00,,,0.03,WUHU216HW,2013-01-26 13:58:00,
2013-01-26 06:03:00,34.4,32.8,29.90,NNE,23,0.0,0.0,94,0.00,,,0.03,WUHU216HW,2013-01-26 14:03:00,
2013-01-26 06:28:00,34.4,32.8,29.91,SW,225,0.2,0.2,94,0.00,,,0.03,WUHU216HW,2013-01-26 14:28:00,
2013-01-26 06:33:00,34.4,32.8,29.91,SW,225,0.2,0.2,94,0.00,,,0.03,WUHU216HW,2013-01-26 14:33:00,
2013-01-26 06:58:00,34.4,32.8,29.91,SSW,203,0.4,0.4,94,0.00,,,0.03,WUHU216HW,2013-01-26 14:58:00,
2013-01-26 07:03:00,34.4,32.8,29.91,SSW,203,0.4,0.4,94,0.00,,,0.03,WUHU216HW,2013-01-26 15:03:00,
2013-01-26 07:28:00,34.2,32.6,29.91,SSW,203,0.0,0.0,94,0.00,,,0.03,WUHU216HW,2013-01-26 15:28:00,
2013-01-26 07:33:00,34.2,32.6,29.91,SSW,203,0.0,0.0,94,0.00,,,0.03,WUHU216HW,2013-01-26 15:33:00,
2013-01-26 07:58:00,34.2,32.6,29.92,SW,225,1.1,1.1,94,0.00,,,0.03,WUHU216HW,2013-01-26 15:58:00,
2013-01-26 08:03:00,34.2,32.6,29.92,SW,225,1.1,1.1,94,0.00,,,0.03,WUHU216HW,2013-01-26 16:03:00,
2013-01-26 08:28:00,34.2,32.6,29.92,SW,225,0.4,0.4,94,0.00,,,0.03,WUHU216HW,2013-01-26 16:28:00,
2013-01-26 08:33:00,34.2,32.6,29.92,SW,225,0.4,0.4,94,0.00,,,0.03,WUHU216HW,2013-01-26 16:33:00,
2013-01-26 08:58:00,34.2,32.6,29.92,SE,135,0.0,0.0,94,0.00,,,0.03,WUHU216HW,2013-01-26 16:58:00,
2013-01-26 09:03:00,34.2,32.6,29.92,SE,135,0.0,0.0,94,0.00,,,0.03,WUHU216HW,2013-01-26 17:03:00,
2013-01-26 09:08:00,34.2,32.6,29.92,SE,135,0.0,0.0,94,0.00,,,0.03,WUHU216HW,2013-01-26 17:08:00,
2013-01-26 09:28:00,34.9,33.3,29.93,South,180,0.0,0.0,94,0.00,,,0.03,WUHU216HW,2013-01-26 17:28:00,
2013-01-26 09:33:00,34.9,33.3,29.93,South,180,0.0,0.0,94,0.00,,,0.03,WUHU216HW,2013-01-26 17:33:00,
2013-01-26 09:58:00,34.6,32.9,29.94,SW,225,1.8,1.8,94,0.00,,,0.03,WUHU216HW,2013-01-26 17:58:00,
2013-01-26 10:03:00,34.6,32.9,29.94,SW,225,1.1,1.8,94,0.00,,,0.03,WUHU216HW,2013-01-26 18:03:00,
2013-01-26 10:08:00,34.6,32.9,29.94,SW,225,1.1,1.1,94,0.00,,,0.03,WUHU216HW,2013-01-26 18:08:00,
2013-01-26 10:28:00,34.7,32.9,29.94,SW,225,1.6,1.6,93,0.00,,,0.03,WUHU216HW,2013-01-26 18:28:00,
2013-01-26 10:33:00,34.7,32.9,29.94,SW,225,1.6,1.6,93,0.00,,,0.03,WUHU216HW,2013-01-26 18:33:00,
2013-01-26 10:58:00,35.5,33.3,29.93,SW,225,2.7,2.7,92,0.00,,,0.03,WUHU216HW,2013-01-26 18:58:00,
2013-01-26 11:03:00,35.3,33.1,29.93,SW,225,2.7,2.7,92,0.00,,,0.03,WUHU216HW,2013-01-26 19:03:00,
2013-01-26 11:08:00,35.3,33.1,29.93,SW,225,2.7,2.7,92,0.00,,,0.03,WUHU216HW,2013-01-26 19:08:00,
2013-01-26 11:28:00,36.2,33.8,29.92,SE,135,0.2,0.2,91,0.00,,,0.03,WUHU216HW,2013-01-26 19:28:00,
2013-01-26 11:33:00,36.2,33.8,29.92,SE,135,0.2,0.2,91,0.00,,,0.03,WUHU216HW,2013-01-26 19:33:00,
2013-01-26 11:58:00,35.6,33.2,29.93,WSW,248,0.0,0.0,91,0.00,,,0.03,WUHU216HW,2013-01-26 19:58:00,
2013-01-26 12:03:00,35.6,33.2,29.93,WSW,248,0.0,0.0,91,0.00,,,0.03,WUHU216HW,2013-01-26 20:03:00,
2013-01-26 12:08:00,35.6,33.2,29.93,WSW,248,0.0,0.0,91,0.00,,,0.03,WUHU216HW,2013-01-26 20:08:00,
2013-01-26 12:28:00,36.4,33.7,29.92,SW,225,0.0,0.0,90,0.00,,,0.03,WUHU216HW,2013-01-26 20:28:00,
2013-01-26 12:33:00,36.4,33.7,29.92,SW,225,0.0,0.0,90,0.00,,,0.03,WUHU216HW,2013-01-26 20:33:00,
2013-01-26 12:58:00,36.4,33.7,29.91,South,180,0.0,0.0,90,0.01,,,0.03,WUHU216HW,2013-01-26 20:58:00,
2013-01-26 13:03:00,36.4,33.7,29.91,South,180,0.0,0.0,90,0.01,,,0.03,WUHU216HW,2013-01-26 21:03:00,
2013-01-26 13:28:00,36.4,33.7,29.91,WSW,248,0.0,0.0,90,0.01,,,0.04,WUHU216HW,2013-01-26 21:28:00,
2013-01-26 13:33:00,36.4,33.7,29.91,WSW,248,0.0,0.0,90,0.01,,,0.04,WUHU216HW,2013-01-26 21:33:00,
2013-01-26 13:58:00,36.7,33.8,29.90,WSW,248,0.0,0.0,89,0.00,,,0.04,WUHU216HW,2013-01-26 21:58:00,
2013-01-26 14:03:00,36.7,33.8,29.90,WSW,248,0.0,0.0,89,0.00,,,0.04,WUHU216HW,2013-01-26 22:03:00,
2013-01-26 14:28:00,37.1,34.1,29.90,SSW,203,0.0,0.0,89,0.00,,,0.04,WUHU216HW,2013-01-26 22:28:00,
2013-01-26 14:33:00,37.1,34.1,29.90,SSW,203,0.0,0.0,89,0.00,,,0.04,WUHU216HW,2013-01-26 22:33:00,
2013-01-26 14:58:00,37.4,34.7,29.90,NW,315,0.0,0.0,90,0.00,,,0.04,WUHU216HW,2013-01-26 22:58:00,
2013-01-26 15:03:00,37.4,34.7,29.90,NW,315,0.0,0.0,90,0.00,,,0.04,WUHU216HW,2013-01-26 23:03:00,
2013-01-26 15:28:00,37.1,33.9,29.90,SSW,203,0.4,0.4,88,0.00,,,0.04,WUHU216HW,2013-01-26 23:28:00,
2013-01-26 15:33:00,37.1,33.9,29.90,SSW,203,0.4,0.4,88,0.00,,,0.04,WUHU216HW,2013-01-26 23:33:00,
2013-01-26 15:58:00,37.1,33.9,29.90,SSW,203,0.4,0.4,88,0.00,,,0.04,WUHU216HW,2013-01-26 23:58:00,
2013-01-26 16:03:00,37.1,33.9,29.90,SSW,203,0.4,0.4,88,0.00,,,0.04,WUHU216HW,2013-01-27 00:03:00,
2013-01-26 16:28:00,36.4,33.1,29.90,SSW,203,0.0,0.0,88,0.00,,,0.04,WUHU216HW,2013-01-27 00:28:00,
2013-01-26 16:33:00,36.4,33.1,29.90,SSW,203,0.0,0.0,88,0.00,,,0.04,WUHU216HW,2013-01-27 00:33:00,
2013-01-26 16:58:00,36.0,33.0,29.91,SSW,203,0.0,0.0,89,0.00,,,0.04,WUHU216HW,2013-01-27 00:58:00,
2013-01-26 17:03:00,36.0,33.0,29.91,SSW,203,0.0,0.0,89,0.00,,,0.04,WUHU216HW,2013-01-27 01:03:00,
2013-01-26 17:28:00,35.6,32.9,29.91,SSW,203,0.0,0.0,90,0.00,,,0.04,WUHU216HW,2013-01-27 01:28:00,
2013-01-26 17:33:00,35.6,32.9,29.91,SSW,203,0.0,0.0,90,0.00,,,0.04,WUHU216HW,2013-01-27 01:33:00,
2013-01-26 17:58:00,34.9,32.2,29.91,NE,45,0.0,0.0,90,0.00,,,0.04,WUHU216HW,2013-01-27 01:58:00,
2013-01-26 18:03:00,34.9,32.2,29.91,NE,45,0.0,0.0,90,0.00,,,0.04,WUHU216HW,2013-01-27 02:03:00,
2013-01-26 18:28:00,34.7,32.3,29.92,SSE,158,0.0,0.0,91,0.00,,,0.04,WUHU216HW,2013-01-27 02:28:00,
2013-01-26 18:33:00,34.7,32.3,29.92,SSE,158,0.0,0.0,91,0.00,,,0.04,WUHU216HW,2013-01-27 02:33:00,
2013-01-26 18:58:00,34.6,32.1,29.92,NW,315,0.0,0.0,91,0.00,,,0.04,WUHU216HW,2013-01-27 02:58:00,
2013-01-26 19:03:00,34.6,32.1,29.92,NW,315,0.0,0.0,91,0.00,,,0.04,WUHU216HW,2013-01-27 03:03:00,
2013-01-26 19:08:00,34.6,32.1,29.92,NW,315,0.0,0.0,91,0.00,,,0.04,WUHU216HW,2013-01-27 03:08:00,
2013-01-26 19:28:00,34.9,32.5,29.92,SW,225,0.0,0.0,91,0.00,,,0.04,WUHU216HW,2013-01-27 03:28:00,
2013-01-26 19:33:00,34.9,32.5,29.92,SW,225,0.0,0.0,91,0.00,,,0.04,WUHU216HW,2013-01-27 03:33:00,
2013-01-26 19:58:00,34.2,31.8,29.92,NE,45,0.0,0.0,91,0.00,,,0.04,WUHU216HW,2013-01-27 03:58:00,
2013-01-26 20:03:00,34.2,31.8,29.92,NE,45,0.0,0.0,91,0.00,,,0.04,WUHU216HW,2013-01-27 04:03:00,
2013-01-26 20:08:00,34.2,31.8,29.92,NE,45,0.0,0.0,91,0.00,,,0.04,WUHU216HW,2013-01-27 04:08:00,
2013-01-26 20:28:00,34.9,32.8,29.92,NE,45,0.0,0.0,92,0.00,,,0.04,WUHU216HW,2013-01-27 04:28:00,
2013-01-26 20:33:00,34.9,32.8,29.92,NE,45,0.0,0.0,92,0.00,,,0.04,WUHU216HW,2013-01-27 04:33:00,
2013-01-26 20:58:00,34.9,33.0,29.93,NE,45,0.0,0.0,93,0.00,,,0.04,WUHU216HW,2013-01-27 04:58:00,
2013-01-26 21:00:00,34.9,33.0,29.93,NE,45,0.0,0.0,93,0.00,,,0.04,WUHU216HW,2013-01-27 05:00:00,
2013-01-26 21:01:00,34.9,33.0,29.93,NE,45,0.0,0.0,93,0.00,,,0.04,WUHU216HW,2013-01-27 05:01:00,
2013-01-26 21:06:00,34.9,33.0,29.93,NE,45,0.0,0.0,93,0.00,,,0.04,WUHU216HW,2013-01-27 05:06:00,
2013-01-26 21:28:00,34.2,32.3,29.93,SW,225,0.0,0.0,93,0.00,,,0.04,WUHU216HW,2013-01-27 05:28:00,
2013-01-26 21:33:00,34.2,32.3,29.93,SW,225,0.0,0.0,93,0.00,,,0.04,WUHU216HW,2013-01-27 05:33:00,
2013-01-26 21:58:00,33.8,32.0,29.94,SSW,203,0.4,0.4,93,0.00,,,0.04,WUHU216HW,2013-01-27 05:58:00,
2013-01-26 22:03:00,33.8,32.0,29.94,SSW,203,0.4,0.4,93,0.00,,,0.04,WUHU216HW,2013-01-27 06:03:00,
2013-01-26 22:28:00,33.7,31.5,29.95,SSW,203,0.4,0.4,92,0.00,,,0.04,WUHU216HW,2013-01-27 06:28:00,
2013-01-26 22:33:00,33.7,31.5,29.95,SSW,203,0.4,0.4,92,0.00,,,0.04,WUHU216HW,2013-01-27 06:33:00,
2013-01-26 22:58:00,33.5,31.3,29.95,West,270,0.0,0.0,92,0.00,,,0.04,WUHU216HW,2013-01-27 06:58:00,
2013-01-26 23:03:00,33.5,31.3,29.95,West,270,0.0,0.0,92,0.00,,,0.04,WUHU216HW,2013-01-27 07:03:00,
2013-01-26 23:08:00,33.5,31.3,29.95,West,270,0.0,0.0,92,0.00,,,0.04,WUHU216HW,2013-01-27 07:08:00,
2013-01-26 23:28:00,33.5,31.3,29.96,SSW,203,0.0,0.0,92,0.00,,,0.04,WUHU216HW,2013-01-27 07:28:00,
2013-01-26 23:33:00,33.5,31.3,29.96,SSW,203,0.0,0.0,92,0.00,,,0.04,WUHU216HW,2013-01-27 07:33:00,
2013-01-26 23:58:00,33.5,31.3,29.95,SSW,203,0.0,0.0,92,0.00,,,0.00,WUHU216HW,2013-01-27 07:58:00,